createdAt,value
2023-03-18T11:02:41.305Z,100753.54
2023-03-18T11:05:27.751Z,100749.82
2023-03-18T11:08:23.007Z,100742.38
2023-03-18T11:10:53.939Z,100740.58
2023-03-18T11:13:24.850Z,100742.55
2023-03-18T11:15:59.342Z,100740.53
2023-03-18T11:18:30.146Z,100736.09
2023-03-18T11:21:05.016Z,100729.23
2023-03-18T11:23:49.525Z,100725.48
2023-03-18T11:26:28.961Z,100718.85
2023-03-18T11:29:02.170Z,100711.18
2023-03-18T11:31:33.764Z,100708.32
2023-03-18T11:34:12.045Z,100702.69
2023-03-18T11:36:45.761Z,100708.77
2023-03-18T11:39:25.272Z,100710.50
2023-03-18T11:41:56.300Z,100714.47
2023-03-18T11:45:24.160Z,100713.96
2023-03-18T11:47:56.074Z,100701.23
2023-03-18T11:50:36.855Z,100691.77
2023-03-18T11:53:25.209Z,100690.90
2023-03-18T11:56:23.897Z,100685.73
2023-03-18T11:59:00.894Z,100684.35
2023-03-18T12:01:41.854Z,100681.43
2023-03-18T12:04:36.308Z,100676.98
2023-03-18T12:07:47.838Z,100675.98
2023-03-18T12:10:25.160Z,100668.59
2023-03-18T12:13:21.844Z,100662.61
2023-03-18T12:16:22.400Z,100660.76
2023-03-18T12:19:22.357Z,100665.95
2023-03-18T12:22:08.221Z,100671.63
2023-03-18T12:25:17.749Z,100670.60
2023-03-18T12:27:59.038Z,100675.08
2023-03-18T12:31:09.980Z,100675.08
2023-03-18T12:33:43.750Z,100672.52
2023-03-18T12:36:30.834Z,100672.52
2023-03-18T12:39:22.765Z,100678.56
2023-03-18T12:42:05.675Z,100680.30
2023-03-18T12:45:15.187Z,100688.05
2023-03-18T12:47:56.925Z,100698.58
2023-03-18T12:50:34.153Z,100699.80
2023-03-18T12:53:16.138Z,100697.90
2023-03-18T12:56:02.443Z,100690.16
2023-03-18T12:58:59.770Z,100684.51
2023-03-18T13:01:48.590Z,100684.16
2023-03-18T13:04:57.702Z,100690.20
2023-03-18T13:07:48.807Z,100692.60
2023-03-18T13:10:25.094Z,100681.75
2023-03-18T13:12:59.832Z,100685.02
2023-03-18T13:15:36.531Z,100672.79
2023-03-18T13:18:28.434Z,100670.20
2023-03-18T13:21:03.768Z,100669.17
2023-03-18T13:24:14.874Z,100676.25
2023-03-18T13:26:48.712Z,100669.55
2023-03-18T13:29:40.723Z,100673.85
2023-03-18T13:32:39.782Z,100668.00
2023-03-18T13:35:20.173Z,100673.84
2023-03-18T13:38:13.240Z,100674.16
2023-03-18T13:41:08.951Z,100670.02
2023-03-18T13:43:46.698Z,100669.48
2023-03-18T13:46:28.166Z,100667.41
2023-03-18T13:49:00.866Z,100666.89
2023-03-18T13:51:31.407Z,100665.34
2023-03-18T13:54:07.907Z,100667.58
2023-03-18T13:56:43.240Z,100670.83
2023-03-18T13:59:47.915Z,100667.20
2023-03-18T14:02:42.894Z,100660.30
2023-03-18T14:05:32.874Z,100659.79
2023-03-18T14:08:44.730Z,100660.14
2023-03-18T14:11:23.230Z,100656.34
2023-03-18T14:14:04.729Z,100656.34
2023-03-18T14:16:54.291Z,100653.24
2023-03-18T14:19:33.130Z,100641.36
2023-03-18T14:22:16.781Z,100641.70
2023-03-18T14:25:10.433Z,100636.02
2023-03-18T14:28:16.095Z,100636.88
2023-03-18T14:31:29.250Z,100641.70
2023-03-18T14:34:22.377Z,100644.80
2023-03-18T14:36:56.043Z,100643.25
2023-03-18T14:39:37.877Z,100640.50
2023-03-18T14:42:25.049Z,100634.64
2023-03-18T14:44:58.101Z,100637.05
2023-03-18T14:47:53.458Z,100639.80
2023-03-18T14:50:47.662Z,100644.46
2023-03-18T14:53:24.755Z,100643.08
2023-03-18T14:55:57.318Z,100640.84
2023-03-18T14:58:29.317Z,100646.02
2023-03-18T15:01:10.041Z,100648.25
2023-03-18T15:08:46.419Z,100644.98
2023-03-18T15:11:20.707Z,100650.83
2023-03-18T15:13:51.660Z,100647.21
2023-03-18T15:16:25.724Z,100647.05
2023-03-18T15:18:58.035Z,100644.80
2023-03-18T15:21:35.483Z,100647.21
2023-03-18T15:24:14.462Z,100643.08
2023-03-18T15:27:16.655Z,100648.77
2023-03-18T15:29:59.195Z,100644.77
2023-03-18T15:32:32.715Z,100641.84
2023-03-18T15:35:27.100Z,100644.77
2023-03-18T15:38:18.115Z,100645.11
2023-03-18T15:40:56.112Z,100647.17
2023-03-18T15:43:45.549Z,100642.52
2023-03-18T15:46:19.716Z,100650.09
2023-03-18T15:48:57.497Z,100645.95
2023-03-18T15:51:40.821Z,100643.73
2023-03-18T15:54:28.934Z,100643.20
2023-03-18T15:57:02.607Z,100646.80
2023-03-18T15:59:35.282Z,100648.69
2023-03-18T16:02:16.351Z,100648.68
2023-03-18T16:04:52.451Z,100655.05
2023-03-18T16:07:34.140Z,100657.27
2023-03-18T16:10:10.509Z,100657.97
2023-03-18T16:12:42.159Z,100662.96
2023-03-18T16:15:23.169Z,100657.63
2023-03-18T16:17:58.820Z,100655.38
2023-03-18T16:20:33.457Z,100655.52
2023-03-18T16:23:05.178Z,100658.77
2023-03-18T16:27:09.005Z,100661.69
2023-03-18T16:30:56.480Z,100662.38
2023-03-18T16:33:27.880Z,100665.95
2023-03-18T16:37:06.810Z,100666.63
2023-03-18T16:39:39.672Z,100666.95
2023-03-18T16:42:12.972Z,100668.66
2023-03-18T16:44:44.632Z,100668.63
2023-03-18T16:47:34.037Z,100668.61
2023-03-18T16:50:05.062Z,100666.18
2023-03-18T16:52:35.961Z,100663.73
2023-03-18T16:55:07.509Z,100666.46
2023-03-18T16:57:38.965Z,100669.55
2023-03-18T17:00:21.873Z,100664.20
2023-03-18T17:02:54.225Z,100676.19
2023-03-18T17:05:25.820Z,100674.80
2023-03-18T17:08:01.325Z,100675.27
2023-03-18T17:10:32.224Z,100676.45
2023-03-18T17:13:09.491Z,100673.31
2023-03-18T17:15:49.675Z,100673.64
2023-03-18T17:19:02.095Z,100678.61
2023-03-18T17:21:34.067Z,100681.35
2023-03-18T17:24:05.610Z,100678.55
2023-03-18T17:26:37.937Z,100683.00
2023-03-18T17:29:10.993Z,100685.56
2023-03-18T17:31:47.065Z,100687.79
2023-03-18T17:34:42.136Z,100694.14
2023-03-18T17:37:41.277Z,100694.29
2023-03-18T17:41:09.835Z,100696.31
2023-03-18T17:44:32.449Z,100693.53
2023-03-18T17:48:06.507Z,100691.27
2023-03-18T17:51:15.776Z,100692.27
2023-03-18T17:54:19.568Z,100694.46
2023-03-18T17:57:20.013Z,100693.93
2023-03-18T17:59:56.372Z,100695.46
2023-03-18T18:02:38.411Z,100692.34
2023-03-18T18:05:20.100Z,100690.10
2023-03-18T18:07:56.010Z,100685.11
2023-03-18T18:10:28.778Z,100688.35
2023-03-18T18:13:00.766Z,100687.45
2023-03-18T18:15:37.776Z,100685.55
2023-03-18T18:18:28.509Z,100686.58
2023-03-18T18:21:03.962Z,100690.69
2023-03-18T18:25:13.692Z,100687.41
2023-03-18T18:27:46.684Z,100681.71
2023-03-18T18:30:24.190Z,100682.36
2023-03-18T18:32:55.167Z,100683.88
2023-03-18T18:35:35.143Z,100680.61
2023-03-18T18:38:10.463Z,100675.27
2023-03-18T18:40:51.937Z,100675.95
2023-03-18T18:43:30.951Z,100676.27
2023-03-18T18:46:05.642Z,100676.11
2023-03-18T18:49:52.054Z,100675.39
2023-03-18T18:52:24.282Z,100677.64
2023-03-18T18:54:56.518Z,100674.18
2023-03-18T18:57:34.960Z,100675.20
2023-03-18T19:00:13.302Z,100676.41
2023-03-18T19:02:47.763Z,100676.73
2023-03-18T19:05:23.707Z,100678.27
2023-03-18T19:08:03.803Z,100676.69
2023-03-18T19:10:41.246Z,100673.93
2023-03-18T19:13:19.310Z,100676.85
2023-03-18T19:16:03.873Z,100678.20
2023-03-18T19:18:41.543Z,100671.14
2023-03-18T19:21:20.921Z,100675.80
2023-03-18T19:23:55.849Z,100673.91
2023-03-18T19:26:33.711Z,100675.43
2023-03-18T19:29:06.615Z,100676.11
2023-03-18T19:31:40.943Z,100676.10
2023-03-18T19:34:46.051Z,100675.23
2023-03-18T19:37:39.351Z,100677.23
2023-03-18T19:40:29.981Z,100678.95
2023-03-18T19:43:04.366Z,100683.58
2023-03-18T19:45:37.031Z,100686.14
2023-03-18T19:48:14.815Z,100691.47
2023-03-18T19:50:54.677Z,100689.40
2023-03-18T19:53:30.645Z,100688.35
2023-03-18T19:56:06.943Z,100688.34
2023-03-18T19:58:39.233Z,100685.40
2023-03-18T20:01:13.129Z,100686.25
2023-03-18T20:07:09.867Z,100688.45
2023-03-18T20:09:43.605Z,100688.75
2023-03-18T20:12:27.658Z,100685.30
2023-03-18T20:15:07.724Z,100690.95
2023-03-18T20:17:46.889Z,100685.27
2023-03-18T20:20:33.779Z,100680.07
2023-03-18T20:23:09.843Z,100680.58
2023-03-18T20:25:48.733Z,100679.86
2023-03-18T20:28:58.137Z,100678.79
2023-03-18T20:31:35.806Z,100677.73
2023-03-18T20:34:10.986Z,100681.64
2023-03-18T20:36:46.960Z,100685.06
2023-03-18T20:39:34.823Z,100684.64
2023-03-18T20:42:09.519Z,100684.95
2023-03-18T20:44:50.923Z,100685.27
2023-03-18T20:47:29.563Z,100686.95
2023-03-18T20:50:06.243Z,100689.30
2023-03-18T20:52:44.774Z,100690.63
2023-03-18T20:55:32.270Z,100686.49
2023-03-18T20:58:09.952Z,100684.42
2023-03-18T21:00:43.412Z,100682.15
2023-03-18T21:03:33.565Z,100686.23
2023-03-18T21:06:07.025Z,100684.64
2023-03-18T21:08:39.074Z,100686.66
2023-03-18T21:12:19.235Z,100686.63
2023-03-18T21:14:53.854Z,100687.44
2023-03-18T21:17:28.562Z,100686.73
2023-03-18T21:20:15.010Z,100688.72
2023-03-18T21:23:02.381Z,100688.69
2023-03-18T21:25:34.631Z,100689.68
2023-03-18T21:28:09.716Z,100686.02
2023-03-18T21:30:44.559Z,100686.84
2023-03-18T21:33:30.728Z,100688.33
2023-03-18T21:36:04.870Z,100684.98
2023-03-18T21:38:36.948Z,100689.73
2023-03-18T21:41:21.816Z,100690.55
2023-03-18T21:44:01.748Z,100686.91
2023-03-18T21:46:35.209Z,100686.68
2023-03-18T21:49:06.410Z,100688.55
2023-03-18T21:51:42.351Z,100684.05
2023-03-18T21:54:20.575Z,100683.35
2023-03-18T21:56:53.365Z,100685.90
2023-03-18T21:59:25.572Z,100687.54
2023-03-18T22:02:00.300Z,100690.77
2023-03-18T22:04:32.240Z,100689.86
2023-03-18T22:07:03.383Z,100687.23
2023-03-18T22:13:39.537Z,100678.30
2023-03-18T22:16:14.454Z,100676.16
2023-03-18T22:18:46.818Z,100674.03
2023-03-18T22:21:26.842Z,100671.40
2023-03-18T22:24:02.451Z,100670.28
2023-03-18T22:26:33.242Z,100670.51
2023-03-18T22:29:03.951Z,100667.88
2023-03-18T22:31:35.260Z,100666.33
2023-03-18T22:34:19.023Z,100669.05
2023-03-18T22:36:50.362Z,100664.85
2023-03-18T22:39:22.567Z,100664.48
2023-03-18T22:41:54.229Z,100665.26
2023-03-18T22:44:26.435Z,100669.84
2023-03-18T22:47:02.413Z,100671.86
2023-03-18T22:49:32.914Z,100669.74
2023-03-18T22:52:05.191Z,100669.19
2023-03-18T22:54:35.813Z,100663.65
2023-03-18T22:57:09.348Z,100666.00
2023-03-18T22:59:40.879Z,100665.63
2023-03-18T23:10:17.595Z,100659.80
2023-03-18T23:12:47.240Z,100664.52
2023-03-18T23:15:20.891Z,100663.29
2023-03-18T23:17:50.489Z,100659.95
2023-03-18T23:20:19.245Z,100658.89
2023-03-18T23:22:47.844Z,100658.00
2023-03-18T23:25:18.388Z,100657.11
2023-03-18T23:27:47.073Z,100658.11
2023-03-18T23:30:16.003Z,100657.23
2023-03-18T23:32:47.468Z,100655.63
2023-03-18T23:35:16.395Z,100660.55
2023-03-18T23:37:44.997Z,100658.13
2023-03-18T23:40:15.100Z,100655.36
2023-03-18T23:42:44.060Z,100654.83
2023-03-18T23:45:13.546Z,100654.62
2023-03-18T23:47:46.299Z,100653.05
2023-03-18T23:50:16.963Z,100653.19
2023-03-18T23:52:45.724Z,100650.40
2023-03-18T23:55:32.668Z,100647.98
2023-03-18T23:58:02.857Z,100651.90
